sensor_id;sensor_type;location;lat;lon;timestamp;P1;durP1;ratioP1;P2;durP2;ratioP2
53245;SDS011;39569;51.090;-1.786;2023-04-19T00:01:07;13.35;;;11.77;;
53245;SDS011;39569;51.090;-1.786;2023-04-19T00:03:35;17.80;;;11.38;;
53245;SDS011;39569;51.090;-1.786;2023-04-19T00:06:02;24.48;;;10.68;;
53245;SDS011;39569;51.090;-1.786;2023-04-19T00:08:29;18.70;;;10.63;;
53245;SDS011;39569;51.090;-1.786;2023-04-19T00:10:55;12.13;;;10.95;;
53245;SDS011;39569;51.090;-1.786;2023-04-19T00:13:22;13.80;;;9.32;;
53245;SDS011;39569;51.090;-1.786;2023-04-19T00:15:49;12.20;;;10.93;;
53245;SDS011;39569;51.090;-1.786;2023-04-19T00:18:16;12.88;;;10.90;;
53245;SDS011;39569;51.090;-1.786;2023-04-19T00:20:44;21.67;;;11.43;;
53245;SDS011;39569;51.090;-1.786;2023-04-19T00:23:13;14.02;;;10.48;;
53245;SDS011;39569;51.090;-1.786;2023-04-19T00:25:39;13.35;;;11.45;;
53245;SDS011;39569;51.090;-1.786;2023-04-19T00:28:06;13.30;;;11.65;;
53245;SDS011;39569;51.090;-1.786;2023-04-19T00:30:33;14.43;;;11.52;;
53245;SDS011;39569;51.090;-1.786;2023-04-19T00:33:00;35.33;;;13.75;;
53245;SDS011;39569;51.090;-1.786;2023-04-19T00:35:26;25.48;;;13.20;;
53245;SDS011;39569;51.090;-1.786;2023-04-19T00:37:55;27.42;;;12.20;;
53245;SDS011;39569;51.090;-1.786;2023-04-19T00:40:21;15.45;;;13.30;;
53245;SDS011;39569;51.090;-1.786;2023-04-19T00:42:48;13.63;;;10.85;;
53245;SDS011;39569;51.090;-1.786;2023-04-19T00:45:15;24.52;;;12.68;;
53245;SDS011;39569;51.090;-1.786;2023-04-19T00:47:42;21.30;;;12.57;;
53245;SDS011;39569;51.090;-1.786;2023-04-19T00:50:09;14.93;;;13.45;;
53245;SDS011;39569;51.090;-1.786;2023-04-19T00:52:37;18.42;;;12.80;;
53245;SDS011;39569;51.090;-1.786;2023-04-19T00:55:06;29.75;;;14.15;;
53245;SDS011;39569;51.090;-1.786;2023-04-19T00:57:33;47.53;;;14.77;;
53245;SDS011;39569;51.090;-1.786;2023-04-19T01:00:01;15.27;;;13.60;;
53245;SDS011;39569;51.090;-1.786;2023-04-19T01:02:30;16.33;;;14.77;;
53245;SDS011;39569;51.090;-1.786;2023-04-19T01:04:57;22.25;;;13.98;;
53245;SDS011;39569;51.090;-1.786;2023-04-19T01:07:24;21.20;;;13.82;;
53245;SDS011;39569;51.090;-1.786;2023-04-19T01:09:51;16.13;;;14.32;;
53245;SDS011;39569;51.090;-1.786;2023-04-19T01:12:19;17.17;;;14.63;;
53245;SDS011;39569;51.090;-1.786;2023-04-19T01:14:47;23.88;;;14.68;;
53245;SDS011;39569;51.090;-1.786;2023-04-19T01:17:13;34.50;;;15.80;;
53245;SDS011;39569;51.090;-1.786;2023-04-19T01:19:42;22.15;;;14.35;;
53245;SDS011;39569;51.090;-1.786;2023-04-19T01:22:08;13.60;;;12.20;;
53245;SDS011;39569;51.090;-1.786;2023-04-19T01:24:37;22.95;;;16.48;;
53245;SDS011;39569;51.090;-1.786;2023-04-19T01:27:04;24.45;;;15.70;;
53245;SDS011;39569;51.090;-1.786;2023-04-19T01:29:31;25.50;;;19.08;;
53245;SDS011;39569;51.090;-1.786;2023-04-19T01:31:57;21.95;;;16.63;;
53245;SDS011;39569;51.090;-1.786;2023-04-19T01:34:24;22.65;;;18.60;;
53245;SDS011;39569;51.090;-1.786;2023-04-19T01:36:51;30.13;;;17.77;;
53245;SDS011;39569;51.090;-1.786;2023-04-19T01:39:18;26.30;;;18.15;;
53245;SDS011;39569;51.090;-1.786;2023-04-19T01:41:46;22.77;;;20.38;;
53245;SDS011;39569;51.090;-1.786;2023-04-19T01:44:13;32.78;;;21.77;;
53245;SDS011;39569;51.090;-1.786;2023-04-19T01:46:40;38.33;;;17.75;;
53245;SDS011;39569;51.090;-1.786;2023-04-19T01:49:07;22.08;;;18.58;;
53245;SDS011;39569;51.090;-1.786;2023-04-19T01:51:33;33.45;;;20.10;;
53245;SDS011;39569;51.090;-1.786;2023-04-19T01:54:01;33.00;;;21.70;;
53245;SDS011;39569;51.090;-1.786;2023-04-19T01:56:28;52.47;;;20.30;;
53245;SDS011;39569;51.090;-1.786;2023-04-19T01:58:58;42.22;;;20.35;;
53245;SDS011;39569;51.090;-1.786;2023-04-19T02:01:25;47.33;;;20.65;;
53245;SDS011;39569;51.090;-1.786;2023-04-19T02:03:51;56.88;;;22.80;;
53245;SDS011;39569;51.090;-1.786;2023-04-19T02:06:18;41.25;;;20.17;;
53245;SDS011;39569;51.090;-1.786;2023-04-19T02:08:45;42.03;;;24.42;;
53245;SDS011;39569;51.090;-1.786;2023-04-19T02:11:12;78.57;;;26.33;;
53245;SDS011;39569;51.090;-1.786;2023-04-19T02:13:39;42.17;;;20.63;;
53245;SDS011;39569;51.090;-1.786;2023-04-19T02:16:08;28.48;;;18.92;;
53245;SDS011;39569;51.090;-1.786;2023-04-19T02:18:36;26.77;;;20.05;;
53245;SDS011;39569;51.090;-1.786;2023-04-19T02:21:04;25.05;;;20.05;;
53245;SDS011;39569;51.090;-1.786;2023-04-19T02:23:31;34.67;;;20.58;;
53245;SDS011;39569;51.090;-1.786;2023-04-19T02:25:59;65.20;;;55.33;;
53245;SDS011;39569;51.090;-1.786;2023-04-19T02:28:27;62.53;;;52.20;;
53245;SDS011;39569;51.090;-1.786;2023-04-19T02:30:54;63.97;;;51.78;;
53245;SDS011;39569;51.090;-1.786;2023-04-19T02:33:22;22.80;;;18.02;;
53245;SDS011;39569;51.090;-1.786;2023-04-19T02:35:49;21.80;;;18.58;;
53245;SDS011;39569;51.090;-1.786;2023-04-19T02:38:15;22.85;;;18.67;;
53245;SDS011;39569;51.090;-1.786;2023-04-19T02:40:42;37.25;;;20.40;;
53245;SDS011;39569;51.090;-1.786;2023-04-19T02:43:09;23.35;;;20.27;;
53245;SDS011;39569;51.090;-1.786;2023-04-19T02:45:36;38.67;;;18.85;;
53245;SDS011;39569;51.090;-1.786;2023-04-19T02:48:03;53.30;;;47.33;;
53245;SDS011;39569;51.090;-1.786;2023-04-19T02:50:31;52.92;;;46.95;;
53245;SDS011;39569;51.090;-1.786;2023-04-19T02:52:58;35.33;;;20.08;;
53245;SDS011;39569;51.090;-1.786;2023-04-19T02:55:25;32.10;;;19.30;;
53245;SDS011;39569;51.090;-1.786;2023-04-19T02:57:52;23.75;;;18.23;;
53245;SDS011;39569;51.090;-1.786;2023-04-19T03:00:18;29.75;;;17.00;;
53245;SDS011;39569;51.090;-1.786;2023-04-19T03:02:45;19.65;;;17.63;;
53245;SDS011;39569;51.090;-1.786;2023-04-19T03:05:12;65.25;;;48.25;;
53245;SDS011;39569;51.090;-1.786;2023-04-19T03:07:40;74.00;;;48.22;;
53245;SDS011;39569;51.090;-1.786;2023-04-19T03:10:07;39.92;;;18.60;;
53245;SDS011;39569;51.090;-1.786;2023-04-19T03:12:35;20.67;;;16.85;;
53245;SDS011;39569;51.090;-1.786;2023-04-19T03:15:02;20.98;;;16.73;;
53245;SDS011;39569;51.090;-1.786;2023-04-19T03:17:28;29.63;;;18.88;;
53245;SDS011;39569;51.090;-1.786;2023-04-19T03:19:55;26.70;;;18.63;;
53245;SDS011;39569;51.090;-1.786;2023-04-19T03:22:22;25.88;;;19.85;;
53245;SDS011;39569;51.090;-1.786;2023-04-19T03:24:50;29.02;;;19.98;;
53245;SDS011;39569;51.090;-1.786;2023-04-19T03:27:17;26.40;;;17.40;;
53245;SDS011;39569;51.090;-1.786;2023-04-19T03:29:44;29.98;;;16.30;;
53245;SDS011;39569;51.090;-1.786;2023-04-19T03:32:11;47.13;;;19.15;;
53245;SDS011;39569;51.090;-1.786;2023-04-19T03:34:38;30.73;;;19.90;;
53245;SDS011;39569;51.090;-1.786;2023-04-19T03:37:05;31.52;;;16.23;;
53245;SDS011;39569;51.090;-1.786;2023-04-19T03:39:32;36.45;;;17.77;;
53245;SDS011;39569;51.090;-1.786;2023-04-19T03:42:00;39.05;;;18.60;;
53245;SDS011;39569;51.090;-1.786;2023-04-19T03:44:27;40.22;;;18.58;;
53245;SDS011;39569;51.090;-1.786;2023-04-19T03:46:53;24.48;;;20.85;;
53245;SDS011;39569;51.090;-1.786;2023-04-19T03:49:20;37.40;;;20.83;;
53245;SDS011;39569;51.090;-1.786;2023-04-19T03:51:47;30.63;;;20.08;;
53245;SDS011;39569;51.090;-1.786;2023-04-19T03:54:14;20.42;;;16.23;;
53245;SDS011;39569;51.090;-1.786;2023-04-19T03:56:41;39.17;;;20.75;;
53245;SDS011;39569;51.090;-1.786;2023-04-19T03:59:09;28.92;;;19.98;;
53245;SDS011;39569;51.090;-1.786;2023-04-19T04:01:36;35.13;;;19.48;;
53245;SDS011;39569;51.090;-1.786;2023-04-19T04:04:05;53.60;;;47.85;;
53245;SDS011;39569;51.090;-1.786;2023-04-19T04:06:32;24.65;;;19.55;;
53245;SDS011;39569;51.090;-1.786;2023-04-19T04:08:59;25.58;;;17.40;;
53245;SDS011;39569;51.090;-1.786;2023-04-19T04:11:26;65.05;;;50.50;;
53245;SDS011;39569;51.090;-1.786;2023-04-19T04:13:54;46.15;;;20.63;;
53245;SDS011;39569;51.090;-1.786;2023-04-19T04:16:22;32.47;;;19.45;;
53245;SDS011;39569;51.090;-1.786;2023-04-19T04:18:49;32.00;;;19.63;;
53245;SDS011;39569;51.090;-1.786;2023-04-19T04:21:16;45.35;;;22.00;;
53245;SDS011;39569;51.090;-1.786;2023-04-19T04:23:43;28.80;;;18.98;;
53245;SDS011;39569;51.090;-1.786;2023-04-19T04:26:09;35.10;;;19.08;;
53245;SDS011;39569;51.090;-1.786;2023-04-19T04:28:38;34.90;;;20.60;;
53245;SDS011;39569;51.090;-1.786;2023-04-19T04:31:04;26.65;;;19.15;;
53245;SDS011;39569;51.090;-1.786;2023-04-19T04:33:33;32.10;;;19.02;;
53245;SDS011;39569;51.090;-1.786;2023-04-19T04:36:00;53.58;;;47.78;;
53245;SDS011;39569;51.090;-1.786;2023-04-19T04:38:27;27.23;;;21.52;;
53245;SDS011;39569;51.090;-1.786;2023-04-19T04:40:54;33.53;;;19.02;;
53245;SDS011;39569;51.090;-1.786;2023-04-19T04:43:21;34.92;;;21.00;;
53245;SDS011;39569;51.090;-1.786;2023-04-19T04:45:49;28.70;;;20.73;;
53245;SDS011;39569;51.090;-1.786;2023-04-19T04:48:19;40.83;;;19.83;;
53245;SDS011;39569;51.090;-1.786;2023-04-19T04:50:47;44.20;;;18.35;;
53245;SDS011;39569;51.090;-1.786;2023-04-19T04:53:14;24.73;;;20.73;;
53245;SDS011;39569;51.090;-1.786;2023-04-19T04:55:41;27.40;;;22.20;;
53245;SDS011;39569;51.090;-1.786;2023-04-19T04:58:07;27.33;;;20.98;;
53245;SDS011;39569;51.090;-1.786;2023-04-19T05:00:34;32.25;;;22.98;;
53245;SDS011;39569;51.090;-1.786;2023-04-19T05:03:01;21.27;;;19.17;;
53245;SDS011;39569;51.090;-1.786;2023-04-19T05:05:28;33.40;;;21.73;;
53245;SDS011;39569;51.090;-1.786;2023-04-19T05:07:56;47.70;;;25.55;;
53245;SDS011;39569;51.090;-1.786;2023-04-19T05:10:23;22.33;;;19.48;;
53245;SDS011;39569;51.090;-1.786;2023-04-19T05:12:50;53.90;;;47.95;;
53245;SDS011;39569;51.090;-1.786;2023-04-19T05:15:16;30.02;;;19.55;;
53245;SDS011;39569;51.090;-1.786;2023-04-19T05:17:43;40.08;;;20.88;;
53245;SDS011;39569;51.090;-1.786;2023-04-19T05:20:10;38.45;;;20.10;;
53245;SDS011;39569;51.090;-1.786;2023-04-19T05:22:37;47.92;;;23.05;;
53245;SDS011;39569;51.090;-1.786;2023-04-19T05:25:05;61.63;;;51.45;;
53245;SDS011;39569;51.090;-1.786;2023-04-19T05:27:33;55.53;;;49.70;;
53245;SDS011;39569;51.090;-1.786;2023-04-19T05:30:00;59.25;;;52.38;;
53245;SDS011;39569;51.090;-1.786;2023-04-19T05:32:27;40.67;;;23.05;;
53245;SDS011;39569;51.090;-1.786;2023-04-19T05:34:54;33.13;;;23.02;;
53245;SDS011;39569;51.090;-1.786;2023-04-19T05:37:21;41.42;;;23.75;;
53245;SDS011;39569;51.090;-1.786;2023-04-19T05:39:49;28.52;;;19.63;;
53245;SDS011;39569;51.090;-1.786;2023-04-19T05:42:17;75.32;;;60.83;;
53245;SDS011;39569;51.090;-1.786;2023-04-19T05:44:44;80.03;;;63.22;;
53245;SDS011;39569;51.090;-1.786;2023-04-19T05:47:11;35.20;;;23.45;;
53245;SDS011;39569;51.090;-1.786;2023-04-19T05:49:37;37.40;;;23.48;;
53245;SDS011;39569;51.090;-1.786;2023-04-19T05:52:04;40.00;;;25.98;;
53245;SDS011;39569;51.090;-1.786;2023-04-19T05:54:31;34.78;;;23.77;;
53245;SDS011;39569;51.090;-1.786;2023-04-19T05:57:00;43.10;;;28.67;;
53245;SDS011;39569;51.090;-1.786;2023-04-19T05:59:28;33.35;;;26.77;;
53245;SDS011;39569;51.090;-1.786;2023-04-19T06:01:55;81.43;;;66.43;;
53245;SDS011;39569;51.090;-1.786;2023-04-19T06:04:22;70.43;;;62.92;;
53245;SDS011;39569;51.090;-1.786;2023-04-19T06:06:49;72.65;;;64.78;;
53245;SDS011;39569;51.090;-1.786;2023-04-19T06:09:15;87.82;;;64.88;;
53245;SDS011;39569;51.090;-1.786;2023-04-19T06:11:43;77.07;;;66.68;;
53245;SDS011;39569;51.090;-1.786;2023-04-19T06:14:10;71.28;;;63.72;;
53245;SDS011;39569;51.090;-1.786;2023-04-19T06:16:39;30.25;;;26.50;;
53245;SDS011;39569;51.090;-1.786;2023-04-19T06:19:06;47.78;;;24.67;;
53245;SDS011;39569;51.090;-1.786;2023-04-19T06:21:33;30.73;;;24.30;;
53245;SDS011;39569;51.090;-1.786;2023-04-19T06:23:59;27.90;;;21.45;;
53245;SDS011;39569;51.090;-1.786;2023-04-19T06:26:26;30.42;;;24.75;;
53245;SDS011;39569;51.090;-1.786;2023-04-19T06:28:53;33.90;;;26.40;;
53245;SDS011;39569;51.090;-1.786;2023-04-19T06:31:20;72.07;;;64.50;;
53245;SDS011;39569;51.090;-1.786;2023-04-19T06:33:48;74.75;;;62.88;;
53245;SDS011;39569;51.090;-1.786;2023-04-19T06:36:15;49.70;;;27.15;;
53245;SDS011;39569;51.090;-1.786;2023-04-19T06:38:42;56.08;;;27.83;;
53245;SDS011;39569;51.090;-1.786;2023-04-19T06:41:10;26.75;;;22.80;;
53245;SDS011;39569;51.090;-1.786;2023-04-19T06:43:37;74.43;;;66.10;;
53245;SDS011;39569;51.090;-1.786;2023-04-19T06:46:06;78.78;;;66.55;;
53245;SDS011;39569;51.090;-1.786;2023-04-19T06:48:33;39.45;;;25.65;;
53245;SDS011;39569;51.090;-1.786;2023-04-19T06:51:02;34.80;;;28.48;;
53245;SDS011;39569;51.090;-1.786;2023-04-19T06:53:29;40.55;;;25.77;;
53245;SDS011;39569;51.090;-1.786;2023-04-19T06:55:57;40.25;;;29.00;;
53245;SDS011;39569;51.090;-1.786;2023-04-19T06:58:25;76.60;;;67.78;;
53245;SDS011;39569;51.090;-1.786;2023-04-19T07:00:53;71.97;;;64.57;;
53245;SDS011;39569;51.090;-1.786;2023-04-19T07:03:20;73.70;;;65.60;;
53245;SDS011;39569;51.090;-1.786;2023-04-19T07:05:46;76.93;;;69.20;;
53245;SDS011;39569;51.090;-1.786;2023-04-19T07:08:15;36.13;;;26.23;;
53245;SDS011;39569;51.090;-1.786;2023-04-19T07:10:42;35.50;;;25.13;;
53245;SDS011;39569;51.090;-1.786;2023-04-19T07:13:11;46.00;;;26.20;;
53245;SDS011;39569;51.090;-1.786;2023-04-19T07:15:38;35.63;;;27.02;;
53245;SDS011;39569;51.090;-1.786;2023-04-19T07:18:05;80.88;;;71.40;;
53245;SDS011;39569;51.090;-1.786;2023-04-19T07:20:34;46.30;;;29.42;;
53245;SDS011;39569;51.090;-1.786;2023-04-19T07:23:01;78.70;;;69.43;;
53245;SDS011;39569;51.090;-1.786;2023-04-19T07:25:29;78.43;;;70.05;;
53245;SDS011;39569;51.090;-1.786;2023-04-19T07:27:56;78.55;;;68.88;;
53245;SDS011;39569;51.090;-1.786;2023-04-19T07:30:22;76.65;;;66.10;;
53245;SDS011;39569;51.090;-1.786;2023-04-19T07:32:49;31.50;;;25.90;;
53245;SDS011;39569;51.090;-1.786;2023-04-19T07:35:17;31.05;;;27.77;;
53245;SDS011;39569;51.090;-1.786;2023-04-19T07:37:44;34.80;;;25.52;;
53245;SDS011;39569;51.090;-1.786;2023-04-19T07:40:11;79.03;;;70.90;;
53245;SDS011;39569;51.090;-1.786;2023-04-19T07:42:41;79.25;;;70.57;;
53245;SDS011;39569;51.090;-1.786;2023-04-19T07:45:08;74.38;;;66.70;;
53245;SDS011;39569;51.090;-1.786;2023-04-19T07:47:36;74.53;;;66.82;;
53245;SDS011;39569;51.090;-1.786;2023-04-19T07:50:03;69.50;;;62.33;;
53245;SDS011;39569;51.090;-1.786;2023-04-19T07:52:31;75.88;;;68.30;;
53245;SDS011;39569;51.090;-1.786;2023-04-19T07:54:58;66.75;;;60.47;;
53245;SDS011;39569;51.090;-1.786;2023-04-19T07:57:25;72.40;;;65.35;;
53245;SDS011;39569;51.090;-1.786;2023-04-19T07:59:55;71.43;;;64.40;;
53245;SDS011;39569;51.090;-1.786;2023-04-19T08:02:24;70.88;;;62.97;;
53245;SDS011;39569;51.090;-1.786;2023-04-19T08:04:51;68.03;;;59.38;;
53245;SDS011;39569;51.090;-1.786;2023-04-19T08:07:18;69.47;;;62.28;;
53245;SDS011;39569;51.090;-1.786;2023-04-19T08:09:45;70.53;;;62.92;;
53245;SDS011;39569;51.090;-1.786;2023-04-19T08:12:11;67.22;;;60.53;;
53245;SDS011;39569;51.090;-1.786;2023-04-19T08:14:38;74.05;;;58.58;;
53245;SDS011;39569;51.090;-1.786;2023-04-19T08:17:07;67.97;;;60.83;;
53245;SDS011;39569;51.090;-1.786;2023-04-19T08:19:34;60.90;;;54.65;;
53245;SDS011;39569;51.090;-1.786;2023-04-19T08:22:01;65.05;;;56.70;;
53245;SDS011;39569;51.090;-1.786;2023-04-19T08:24:28;62.67;;;56.47;;
53245;SDS011;39569;51.090;-1.786;2023-04-19T08:26:55;62.17;;;55.60;;
53245;SDS011;39569;51.090;-1.786;2023-04-19T08:29:22;63.47;;;57.17;;
53245;SDS011;39569;51.090;-1.786;2023-04-19T08:31:49;62.22;;;56.03;;
53245;SDS011;39569;51.090;-1.786;2023-04-19T08:34:18;58.72;;;52.95;;
53245;SDS011;39569;51.090;-1.786;2023-04-19T08:36:45;68.38;;;55.80;;
53245;SDS011;39569;51.090;-1.786;2023-04-19T08:39:11;58.20;;;52.17;;
53245;SDS011;39569;51.090;-1.786;2023-04-19T08:41:39;59.95;;;53.92;;
53245;SDS011;39569;51.090;-1.786;2023-04-19T08:44:06;57.25;;;51.40;;
53245;SDS011;39569;51.090;-1.786;2023-04-19T08:46:34;57.97;;;49.35;;
53245;SDS011;39569;51.090;-1.786;2023-04-19T08:49:01;55.75;;;47.75;;
53245;SDS011;39569;51.090;-1.786;2023-04-19T08:51:32;51.55;;;46.25;;
53245;SDS011;39569;51.090;-1.786;2023-04-19T08:54:00;43.42;;;39.33;;
53245;SDS011;39569;51.090;-1.786;2023-04-19T08:56:29;49.40;;;44.25;;
53245;SDS011;39569;51.090;-1.786;2023-04-19T08:58:56;51.65;;;40.80;;
53245;SDS011;39569;51.090;-1.786;2023-04-19T09:01:23;53.92;;;38.70;;
53245;SDS011;39569;51.090;-1.786;2023-04-19T09:03:50;42.22;;;36.08;;
53245;SDS011;39569;51.090;-1.786;2023-04-19T09:06:17;43.15;;;38.60;;
53245;SDS011;39569;51.090;-1.786;2023-04-19T09:08:45;44.65;;;39.88;;
53245;SDS011;39569;51.090;-1.786;2023-04-19T09:11:12;43.28;;;38.83;;
53245;SDS011;39569;51.090;-1.786;2023-04-19T09:13:39;42.03;;;37.45;;
53245;SDS011;39569;51.090;-1.786;2023-04-19T09:16:21;45.60;;;39.53;;
53245;SDS011;39569;51.090;-1.786;2023-04-19T09:18:53;42.60;;;38.15;;
53245;SDS011;39569;51.090;-1.786;2023-04-19T09:21:30;43.45;;;35.45;;
53245;SDS011;39569;51.090;-1.786;2023-04-19T09:24:00;49.97;;;37.28;;
53245;SDS011;39569;51.090;-1.786;2023-04-19T09:26:27;38.95;;;35.22;;
53245;SDS011;39569;51.090;-1.786;2023-04-19T09:28:55;40.85;;;35.95;;
53245;SDS011;39569;51.090;-1.786;2023-04-19T09:31:23;39.25;;;30.35;;
53245;SDS011;39569;51.090;-1.786;2023-04-19T09:33:51;43.28;;;33.33;;
53245;SDS011;39569;51.090;-1.786;2023-04-19T09:36:26;36.65;;;31.40;;
53245;SDS011;39569;51.090;-1.786;2023-04-19T09:38:53;33.88;;;30.42;;
53245;SDS011;39569;51.090;-1.786;2023-04-19T09:41:22;33.60;;;30.15;;
53245;SDS011;39569;51.090;-1.786;2023-04-19T09:43:49;38.85;;;31.45;;
53245;SDS011;39569;51.090;-1.786;2023-04-19T09:51:48;39.47;;;30.70;;
53245;SDS011;39569;51.090;-1.786;2023-04-19T09:54:16;36.47;;;32.90;;
53245;SDS011;39569;51.090;-1.786;2023-04-19T09:56:45;32.58;;;28.25;;
53245;SDS011;39569;51.090;-1.786;2023-04-19T09:59:13;32.63;;;27.70;;
53245;SDS011;39569;51.090;-1.786;2023-04-19T10:01:42;30.95;;;26.35;;
53245;SDS011;39569;51.090;-1.786;2023-04-19T10:04:10;28.88;;;25.73;;
53245;SDS011;39569;51.090;-1.786;2023-04-19T10:09:12;34.25;;;31.02;;
53245;SDS011;39569;51.090;-1.786;2023-04-19T10:11:39;35.40;;;28.95;;
53245;SDS011;39569;51.090;-1.786;2023-04-19T10:14:10;39.15;;;26.83;;
53245;SDS011;39569;51.090;-1.786;2023-04-19T10:16:37;28.85;;;25.77;;
53245;SDS011;39569;51.090;-1.786;2023-04-19T10:19:07;28.77;;;26.10;;
53245;SDS011;39569;51.090;-1.786;2023-04-19T10:21:36;29.45;;;26.60;;
53245;SDS011;39569;51.090;-1.786;2023-04-19T10:24:04;27.55;;;24.88;;
53245;SDS011;39569;51.090;-1.786;2023-04-19T10:27:04;27.15;;;24.67;;
53245;SDS011;39569;51.090;-1.786;2023-04-19T10:29:55;27.20;;;24.73;;
53245;SDS011;39569;51.090;-1.786;2023-04-19T10:32:25;27.30;;;24.67;;
53245;SDS011;39569;51.090;-1.786;2023-04-19T10:34:52;34.17;;;24.83;;
53245;SDS011;39569;51.090;-1.786;2023-04-19T10:37:20;25.65;;;23.15;;
53245;SDS011;39569;51.090;-1.786;2023-04-19T10:39:49;28.05;;;25.05;;
53245;SDS011;39569;51.090;-1.786;2023-04-19T10:42:15;28.02;;;25.15;;
53245;SDS011;39569;51.090;-1.786;2023-04-19T10:47:44;26.55;;;23.80;;
53245;SDS011;39569;51.090;-1.786;2023-04-19T10:50:11;23.90;;;21.40;;
53245;SDS011;39569;51.090;-1.786;2023-04-19T10:52:41;25.00;;;21.90;;
53245;SDS011;39569;51.090;-1.786;2023-04-19T10:55:08;22.83;;;20.50;;
53245;SDS011;39569;51.090;-1.786;2023-04-19T11:00:29;28.48;;;20.77;;
53245;SDS011;39569;51.090;-1.786;2023-04-19T11:02:59;22.63;;;20.35;;
53245;SDS011;39569;51.090;-1.786;2023-04-19T11:08:41;26.73;;;19.40;;
53245;SDS011;39569;51.090;-1.786;2023-04-19T11:11:09;20.55;;;18.48;;
53245;SDS011;39569;51.090;-1.786;2023-04-19T11:13:36;21.17;;;19.45;;
53245;SDS011;39569;51.090;-1.786;2023-04-19T11:16:06;21.73;;;19.55;;
53245;SDS011;39569;51.090;-1.786;2023-04-19T11:18:34;22.80;;;19.65;;
53245;SDS011;39569;51.090;-1.786;2023-04-19T11:21:01;19.80;;;17.92;;
53245;SDS011;39569;51.090;-1.786;2023-04-19T11:23:28;20.38;;;18.48;;
53245;SDS011;39569;51.090;-1.786;2023-04-19T11:25:55;19.98;;;17.40;;
53245;SDS011;39569;51.090;-1.786;2023-04-19T11:28:21;20.05;;;18.08;;
53245;SDS011;39569;51.090;-1.786;2023-04-19T11:30:48;20.83;;;18.55;;
53245;SDS011;39569;51.090;-1.786;2023-04-19T11:33:16;24.85;;;19.73;;
53245;SDS011;39569;51.090;-1.786;2023-04-19T11:35:50;23.00;;;18.63;;
53245;SDS011;39569;51.090;-1.786;2023-04-19T11:38:17;19.70;;;16.40;;
53245;SDS011;39569;51.090;-1.786;2023-04-19T11:40:43;20.25;;;18.52;;
53245;SDS011;39569;51.090;-1.786;2023-04-19T11:43:10;18.73;;;16.33;;
53245;SDS011;39569;51.090;-1.786;2023-04-19T11:45:37;17.50;;;15.82;;
53245;SDS011;39569;51.090;-1.786;2023-04-19T11:48:04;17.45;;;15.80;;
53245;SDS011;39569;51.090;-1.786;2023-04-19T11:50:32;17.27;;;15.57;;
53245;SDS011;39569;51.090;-1.786;2023-04-19T11:53:12;18.38;;;15.20;;
53245;SDS011;39569;51.090;-1.786;2023-04-19T11:55:41;19.38;;;17.55;;
53245;SDS011;39569;51.090;-1.786;2023-04-19T11:58:27;23.30;;;15.82;;
53245;SDS011;39569;51.090;-1.786;2023-04-19T12:00:56;17.80;;;16.25;;
53245;SDS011;39569;51.090;-1.786;2023-04-19T12:03:28;19.33;;;17.20;;
53245;SDS011;39569;51.090;-1.786;2023-04-19T12:05:55;24.88;;;15.85;;
53245;SDS011;39569;51.090;-1.786;2023-04-19T12:08:31;19.40;;;17.45;;
53245;SDS011;39569;51.090;-1.786;2023-04-19T12:10:59;24.30;;;15.85;;
53245;SDS011;39569;51.090;-1.786;2023-04-19T12:13:27;20.10;;;17.85;;
53245;SDS011;39569;51.090;-1.786;2023-04-19T12:15:54;20.67;;;18.83;;
53245;SDS011;39569;51.090;-1.786;2023-04-19T12:18:21;19.63;;;17.70;;
53245;SDS011;39569;51.090;-1.786;2023-04-19T12:20:49;27.70;;;19.00;;
53245;SDS011;39569;51.090;-1.786;2023-04-19T12:23:17;18.63;;;16.88;;
53245;SDS011;39569;51.090;-1.786;2023-04-19T12:25:47;19.20;;;17.13;;
53245;SDS011;39569;51.090;-1.786;2023-04-19T12:28:14;21.50;;;17.98;;
53245;SDS011;39569;51.090;-1.786;2023-04-19T12:30:42;21.05;;;17.85;;
53245;SDS011;39569;51.090;-1.786;2023-04-19T12:33:09;22.42;;;18.85;;
53245;SDS011;39569;51.090;-1.786;2023-04-19T12:35:36;20.80;;;16.90;;
53245;SDS011;39569;51.090;-1.786;2023-04-19T12:38:03;17.30;;;15.68;;
53245;SDS011;39569;51.090;-1.786;2023-04-19T12:40:30;21.55;;;19.45;;
53245;SDS011;39569;51.090;-1.786;2023-04-19T12:42:58;20.10;;;18.08;;
53245;SDS011;39569;51.090;-1.786;2023-04-19T12:45:25;19.08;;;15.27;;
53245;SDS011;39569;51.090;-1.786;2023-04-19T12:47:52;19.00;;;17.15;;
53245;SDS011;39569;51.090;-1.786;2023-04-19T12:50:19;23.98;;;18.17;;
53245;SDS011;39569;51.090;-1.786;2023-04-19T12:52:46;21.02;;;17.35;;
53245;SDS011;39569;51.090;-1.786;2023-04-19T12:55:13;24.25;;;17.20;;
53245;SDS011;39569;51.090;-1.786;2023-04-19T12:57:41;18.83;;;16.95;;
53245;SDS011;39569;51.090;-1.786;2023-04-19T13:00:09;19.48;;;17.45;;
53245;SDS011;39569;51.090;-1.786;2023-04-19T13:02:37;25.33;;;17.20;;
53245;SDS011;39569;51.090;-1.786;2023-04-19T13:05:04;21.80;;;18.02;;
53245;SDS011;39569;51.090;-1.786;2023-04-19T13:07:31;17.40;;;15.63;;
53245;SDS011;39569;51.090;-1.786;2023-04-19T13:09:58;20.17;;;17.23;;
53245;SDS011;39569;51.090;-1.786;2023-04-19T13:12:25;17.00;;;15.60;;
53245;SDS011;39569;51.090;-1.786;2023-04-19T13:14:52;17.75;;;15.82;;
53245;SDS011;39569;51.090;-1.786;2023-04-19T13:17:20;16.15;;;14.45;;
53245;SDS011;39569;51.090;-1.786;2023-04-19T13:19:47;17.95;;;15.75;;
53245;SDS011;39569;51.090;-1.786;2023-04-19T13:22:14;18.05;;;16.23;;
53245;SDS011;39569;51.090;-1.786;2023-04-19T13:24:41;20.70;;;16.15;;
53245;SDS011;39569;51.090;-1.786;2023-04-19T13:27:08;18.38;;;16.48;;
53245;SDS011;39569;51.090;-1.786;2023-04-19T13:29:35;17.85;;;16.17;;
53245;SDS011;39569;51.090;-1.786;2023-04-19T13:32:02;17.55;;;15.65;;
53245;SDS011;39569;51.090;-1.786;2023-04-19T13:34:32;16.90;;;15.40;;
53245;SDS011;39569;51.090;-1.786;2023-04-19T13:36:59;26.50;;;16.50;;
53245;SDS011;39569;51.090;-1.786;2023-04-19T13:39:26;18.70;;;16.95;;
53245;SDS011;39569;51.090;-1.786;2023-04-19T13:41:53;20.05;;;16.23;;
53245;SDS011;39569;51.090;-1.786;2023-04-19T13:44:20;20.00;;;17.77;;
53245;SDS011;39569;51.090;-1.786;2023-04-19T13:46:46;19.60;;;17.60;;
53245;SDS011;39569;51.090;-1.786;2023-04-19T13:49:13;17.13;;;13.80;;
53245;SDS011;39569;51.090;-1.786;2023-04-19T13:51:42;19.63;;;16.58;;
53245;SDS011;39569;51.090;-1.786;2023-04-19T13:54:08;15.68;;;14.10;;
53245;SDS011;39569;51.090;-1.786;2023-04-19T13:56:35;15.00;;;13.48;;
53245;SDS011;39569;51.090;-1.786;2023-04-19T13:59:02;15.40;;;13.90;;
53245;SDS011;39569;51.090;-1.786;2023-04-19T14:01:29;15.38;;;13.77;;
53245;SDS011;39569;51.090;-1.786;2023-04-19T14:03:55;16.42;;;14.02;;
53245;SDS011;39569;51.090;-1.786;2023-04-19T14:06:22;21.58;;;13.32;;
53245;SDS011;39569;51.090;-1.786;2023-04-19T14:08:50;18.40;;;13.90;;
53245;SDS011;39569;51.090;-1.786;2023-04-19T14:11:17;14.95;;;12.70;;
53245;SDS011;39569;51.090;-1.786;2023-04-19T14:13:44;14.10;;;11.70;;
53245;SDS011;39569;51.090;-1.786;2023-04-19T14:16:12;12.52;;;11.45;;
53245;SDS011;39569;51.090;-1.786;2023-04-19T14:18:39;10.40;;;9.27;;
53245;SDS011;39569;51.090;-1.786;2023-04-19T14:21:06;12.07;;;10.77;;
53245;SDS011;39569;51.090;-1.786;2023-04-19T14:23:32;11.65;;;10.50;;
53245;SDS011;39569;51.090;-1.786;2023-04-19T14:26:01;13.07;;;10.25;;
53245;SDS011;39569;51.090;-1.786;2023-04-19T14:28:27;13.90;;;10.85;;